Time;durP1;ratioP1;P1;durP2;ratioP2;P2;SDS_P1;SDS_P2;PMS_P1;PMS_P2;Temp;Humidity;BMP_temperature;BMP_pressure;BME280_temperature;BME280_humidity;BME280_pressure;Samples;Min_cycle;Max_cycle;Signal;HPM_P1;HPM_P2
2021/09/01 00:00:17;;;;;;;14.10;5.38;;;15.60;99.90;;;;;;6090499;23;20029;-69
2021/09/01 00:02:43;;;;;;;14.80;5.20;;;15.60;99.90;;;;;;6068735;23;20022;-69
2021/09/01 00:05:12;;;;;;;16.95;5.03;;;15.60;99.90;;;;;;6117767;23;20022;-69
2021/09/01 00:07:38;;;;;;;15.60;5.38;;;15.70;99.90;;;;;;6114673;23;20030;-69
2021/09/01 00:10:06;;;;;;;20.10;5.53;;;15.60;99.80;;;;;;6118835;23;20018;-69
2021/09/01 00:12:36;;;;;;;15.32;4.75;;;15.60;99.90;;;;;;6118525;23;20508;-69
2021/09/01 00:15:02;;;;;;;15.90;5.07;;;15.60;99.90;;;;;;6091171;23;20057;-69
2021/09/01 00:17:28;;;;;;;12.93;4.75;;;15.60;99.50;;;;;;6116420;23;20022;-69
2021/09/01 00:20:01;;;;;;;15.68;5.35;;;15.60;99.50;;;;;;6094477;23;20122;-69
2021/09/01 00:22:26;;;;;;;20.73;5.18;;;15.60;99.50;;;;;;6118117;23;20096;-69
2021/09/01 00:24:52;;;;;;;14.98;5.25;;;15.60;99.40;;;;;;6090918;23;20104;-69
2021/09/01 00:27:18;;;;;;;17.27;5.38;;;15.60;99.50;;;;;;6115748;23;20053;-69
2021/09/01 00:29:44;;;;;;;11.50;4.70;;;15.60;99.80;;;;;;6116892;23;20513;-69
2021/09/01 00:32:09;;;;;;;12.85;5.00;;;15.60;99.90;;;;;;6093532;23;20018;-69
2021/09/01 00:34:38;;;;;;;18.10;5.57;;;15.70;99.10;;;;;;6118023;23;20053;-69
2021/09/01 00:37:05;;;;;;;15.73;5.50;;;15.60;99.50;;;;;;6117285;23;20448;-69
2021/09/01 00:39:31;;;;;;;15.70;5.05;;;15.60;99.40;;;;;;6093224;23;20026;-69
2021/09/01 00:42:04;;;;;;;19.38;5.72;;;15.60;99.30;;;;;;6039576;23;20034;-69
2021/09/01 00:44:30;;;;;;;16.08;4.72;;;15.60;99.90;;;;;;6108908;23;20025;-69
2021/09/01 00:46:59;;;;;;;13.45;5.07;;;15.60;99.90;;;;;;6082522;23;20450;-69
2021/09/01 00:49:29;;;;;;;14.02;5.60;;;15.50;99.90;;;;;;6082953;23;20034;-69
2021/09/01 00:51:56;;;;;;;15.82;5.30;;;15.50;99.90;;;;;;6107294;23;20029;-69
2021/09/01 00:54:24;;;;;;;16.15;5.05;;;15.50;99.90;;;;;;6084356;23;20026;-69
2021/09/01 00:56:53;;;;;;;21.35;6.00;;;15.50;99.90;;;;;;6058456;23;20030;-69
2021/09/01 00:59:31;;;;;;;18.40;5.22;;;15.40;99.90;;;;;;6114747;23;20060;-69
2021/09/01 01:01:58;;;;;;;15.88;5.40;;;15.40;99.90;;;;;;6113151;23;20109;-69
2021/09/01 01:04:33;;;;;;;15.20;5.75;;;15.40;99.90;;;;;;6086982;23;20089;-69
2021/09/01 01:07:07;;;;;;;14.98;5.95;;;15.40;99.90;;;;;;6093222;23;20018;-69
2021/09/01 01:09:35;;;;;;;18.42;6.07;;;15.40;99.90;;;;;;6116091;23;20521;-69
2021/09/01 01:12:21;;;;;;;22.88;6.97;;;15.40;99.90;;;;;;6091835;23;20025;-69
2021/09/01 01:14:50;;;;;;;17.83;5.50;;;15.40;99.90;;;;;;6115999;23;20030;-69
2021/09/01 01:17:18;;;;;;;19.17;5.05;;;15.40;99.90;;;;;;6119145;23;20026;-69
2021/09/01 01:19:48;;;;;;;17.15;5.85;;;15.40;99.90;;;;;;6115975;23;20025;-69
2021/09/01 01:22:20;;;;;;;16.88;5.90;;;15.40;99.90;;;;;;6090358;23;20040;-69
2021/09/01 01:25:07;;;;;;;18.42;6.10;;;15.30;99.90;;;;;;6117137;23;20097;-68
2021/09/01 01:27:41;;;;;;;14.88;5.60;;;15.30;99.90;;;;;;6093307;23;20022;-69
2021/09/01 01:30:18;;;;;;;16.23;5.63;;;15.30;99.90;;;;;;6117019;23;20022;-69
2021/09/01 01:32:47;;;;;;;22.20;6.03;;;15.30;99.90;;;;;;6117253;23;20589;-69
2021/09/01 01:35:33;;;;;;;14.40;5.47;;;15.30;99.90;;;;;;6117234;23;20025;-69
2021/09/01 01:38:04;;;;;;;18.30;6.65;;;15.30;99.90;;;;;;6092331;23;20030;-69
2021/09/01 01:40:30;;;;;;;12.77;5.15;;;15.30;99.90;;;;;;6117020;23;20058;-68
2021/09/01 01:42:57;;;;;;;17.70;6.57;;;15.30;99.90;;;;;;6069844;23;20178;-68
2021/09/01 01:45:25;;;;;;;15.70;6.07;;;15.30;99.90;;;;;;6115353;23;20474;-80
2021/09/01 01:47:51;;;;;;;15.60;5.70;;;15.30;99.90;;;;;;6091324;23;20025;-80
2021/09/01 01:50:17;;;;;;;16.58;5.78;;;15.30;99.90;;;;;;6093577;23;20041;-69
2021/09/01 01:52:42;;;;;;;17.52;5.88;;;15.30;99.90;;;;;;6115315;23;20026;-69
2021/09/01 01:55:10;;;;;;;16.27;5.68;;;15.30;99.90;;;;;;6117120;23;20026;-69
2021/09/01 01:57:36;;;;;;;13.93;5.55;;;15.30;99.90;;;;;;6114340;23;20018;-69
2021/09/01 02:00:04;;;;;;;19.48;5.45;;;15.30;99.90;;;;;;6114934;23;20026;-69
2021/09/01 02:02:41;;;;;;;13.73;5.78;;;15.30;99.90;;;;;;6096074;23;20577;-69
2021/09/01 02:05:08;;;;;;;21.00;6.63;;;15.30;99.90;;;;;;6092340;23;20018;-69
2021/09/01 02:07:34;;;;;;;16.40;5.63;;;15.30;99.90;;;;;;6117457;23;20029;-69
2021/09/01 02:10:00;;;;;;;21.92;6.25;;;15.20;99.90;;;;;;6115138;23;20096;-68
2021/09/01 02:12:29;;;;;;;16.13;6.18;;;15.20;99.90;;;;;;6092301;23;20030;-68
2021/09/01 02:14:59;;;;;;;17.90;6.70;;;15.20;99.90;;;;;;6094140;23;20526;-69
2021/09/01 02:17:26;;;;;;;15.68;5.28;;;15.20;99.90;;;;;;6117481;23;20460;-69
2021/09/01 02:19:52;;;;;;;11.10;4.70;;;15.20;99.90;;;;;;6090951;23;20022;-69
2021/09/01 02:22:19;;;;;;;17.88;6.88;;;15.20;99.90;;;;;;6117535;23;20493;-69
2021/09/01 02:24:45;;;;;;;14.32;6.00;;;15.20;99.90;;;;;;6092078;23;20351;-69
2021/09/01 02:27:11;;;;;;;17.50;6.13;;;15.20;99.90;;;;;;6118126;23;20026;-69
2021/09/01 02:29:37;;;;;;;18.27;6.25;;;15.10;99.90;;;;;;6114804;23;20022;-69
2021/09/01 02:32:04;;;;;;;14.93;6.60;;;15.10;99.90;;;;;;6094161;23;20026;-69
2021/09/01 02:34:30;;;;;;;18.45;5.97;;;15.10;99.90;;;;;;6115008;23;20792;-69
2021/09/01 02:36:56;;;;;;;16.30;6.22;;;15.10;99.90;;;;;;6117047;23;20529;-69
2021/09/01 02:39:22;;;;;;;19.50;6.70;;;15.20;99.90;;;;;;6115865;23;20026;-69
2021/09/01 02:41:48;;;;;;;14.60;5.35;;;15.20;99.90;;;;;;6116949;23;20089;-69
2021/09/01 02:44:14;;;;;;;19.15;6.35;;;15.10;99.90;;;;;;6117520;23;20030;-69
2021/09/01 02:46:40;;;;;;;17.73;5.63;;;15.20;99.90;;;;;;6114185;23;20029;-69
2021/09/01 02:49:06;;;;;;;12.05;5.07;;;15.10;99.90;;;;;;6117918;23;20359;-69
2021/09/01 02:51:32;;;;;;;18.15;5.90;;;15.20;99.90;;;;;;6093787;23;20029;-69
2021/09/01 02:53:58;;;;;;;17.13;5.47;;;15.20;99.90;;;;;;6093682;23;20487;-69
2021/09/01 02:56:24;;;;;;;14.65;5.30;;;15.20;99.90;;;;;;6092023;23;20044;-69
2021/09/01 02:58:49;;;;;;;18.13;6.35;;;15.10;99.90;;;;;;6116324;23;20026;-69
2021/09/01 03:01:15;;;;;;;15.65;6.38;;;15.10;99.90;;;;;;6069034;23;20030;-69
2021/09/01 03:03:41;;;;;;;15.82;5.30;;;15.10;99.90;;;;;;6115488;23;20030;-69
2021/09/01 03:06:07;;;;;;;18.58;6.57;;;15.10;99.90;;;;;;6117791;23;20022;-69
2021/09/01 03:08:32;;;;;;;15.10;5.32;;;15.10;99.90;;;;;;6091180;23;20028;-69
2021/09/01 03:10:58;;;;;;;17.88;5.95;;;15.10;99.90;;;;;;6116446;23;20018;-69
2021/09/01 03:13:24;;;;;;;17.27;5.28;;;15.10;99.90;;;;;;6117702;23;20037;-69
2021/09/01 03:15:50;;;;;;;17.92;5.15;;;15.10;99.90;;;;;;6115931;23;20022;-69
2021/09/01 03:18:16;;;;;;;21.58;7.30;;;15.10;99.90;;;;;;6117555;23;20105;-69
2021/09/01 03:20:42;;;;;;;20.05;5.95;;;15.10;99.90;;;;;;6091927;23;20026;-69
2021/09/01 03:23:07;;;;;;;11.02;4.47;;;15.10;99.90;;;;;;6117309;23;20068;-69
2021/09/01 03:25:33;;;;;;;13.45;5.40;;;15.10;99.90;;;;;;6093268;23;20636;-69
2021/09/01 03:27:59;;;;;;;15.73;5.85;;;15.10;99.90;;;;;;6115597;23;20030;-68
2021/09/01 03:30:29;;;;;;;13.48;6.05;;;15.10;99.90;;;;;;6091678;23;20026;-68
2021/09/01 03:32:56;;;;;;;14.82;5.88;;;15.10;99.90;;;;;;6091876;23;20022;-68
2021/09/01 03:35:23;;;;;;;15.68;5.53;;;15.00;99.90;;;;;;6091483;23;20041;-68
2021/09/01 03:37:49;;;;;;;16.98;5.60;;;15.00;99.90;;;;;;6093147;23;20025;-68
2021/09/01 03:40:16;;;;;;;14.68;5.57;;;15.00;99.90;;;;;;6065662;23;20479;-68
2021/09/01 03:42:44;;;;;;;15.40;5.78;;;15.00;99.90;;;;;;6118321;23;20101;-69
2021/09/01 03:45:11;;;;;;;13.48;5.85;;;15.00;99.90;;;;;;6116820;23;20026;-69
2021/09/01 03:47:37;;;;;;;16.73;6.40;;;15.00;99.90;;;;;;6092616;23;20084;-69
2021/09/01 03:50:05;;;;;;;14.25;5.82;;;15.00;99.90;;;;;;6092259;23;20022;-69
2021/09/01 03:52:31;;;;;;;14.20;6.10;;;15.00;99.90;;;;;;6092831;23;20018;-68
2021/09/01 03:54:57;;;;;;;12.70;5.00;;;14.90;99.90;;;;;;6115989;23;20111;-69
2021/09/01 03:57:23;;;;;;;13.65;5.95;;;14.90;99.90;;;;;;6092598;23;20407;-69
2021/09/01 03:59:55;;;;;;;15.93;5.57;;;14.90;99.90;;;;;;6116366;23;20022;-70
2021/09/01 04:02:21;;;;;;;20.23;6.55;;;14.90;99.90;;;;;;6114107;23;20030;-69
2021/09/01 04:04:47;;;;;;;13.23;4.90;;;15.00;99.90;;;;;;6097920;23;20032;-69
2021/09/01 04:07:12;;;;;;;14.90;5.78;;;14.90;99.90;;;;;;6072290;23;20022;-69
2021/09/01 04:09:38;;;;;;;12.05;5.30;;;15.00;99.90;;;;;;6122084;23;20100;-69
2021/09/01 04:12:08;;;;;;;15.13;5.72;;;15.00;99.90;;;;;;6123043;23;20538;-69
2021/09/01 04:14:37;;;;;;;15.30;5.80;;;14.90;99.90;;;;;;6100035;23;20028;-69
2021/09/01 04:17:03;;;;;;;14.52;5.70;;;14.90;99.90;;;;;;6100242;23;20974;-69
2021/09/01 04:19:29;;;;;;;17.17;6.40;;;14.90;99.90;;;;;;6119643;23;20454;-69
2021/09/01 04:21:56;;;;;;;13.50;6.05;;;14.90;99.90;;;;;;6124205;23;20075;-69
2021/09/01 04:24:22;;;;;;;15.80;6.13;;;14.90;99.90;;;;;;6121302;23;20025;-69
2021/09/01 04:26:47;;;;;;;19.98;6.00;;;14.90;99.90;;;;;;6098372;23;20032;-69
2021/09/01 04:29:13;;;;;;;14.15;6.00;;;14.90;99.90;;;;;;6097276;23;20057;-69
2021/09/01 04:31:39;;;;;;;12.93;4.93;;;14.90;99.90;;;;;;6123369;23;20021;-69
2021/09/01 04:34:05;;;;;;;17.83;5.63;;;14.90;99.90;;;;;;6099843;23;20480;-69
2021/09/01 04:36:31;;;;;;;14.55;5.00;;;14.90;99.90;;;;;;6096638;23;20033;-69
2021/09/01 04:38:56;;;;;;;16.67;5.85;;;14.90;99.90;;;;;;6075030;23;20021;-69
2021/09/01 04:41:22;;;;;;;15.32;6.00;;;14.90;99.90;;;;;;6096458;23;20427;-69
2021/09/01 04:43:48;;;;;;;17.38;5.70;;;14.90;99.90;;;;;;6098586;23;20021;-69
2021/09/01 04:46:14;;;;;;;14.80;5.60;;;14.90;99.90;;;;;;6120672;23;20018;-69
2021/09/01 04:48:39;;;;;;;13.93;5.38;;;14.90;99.90;;;;;;6074012;23;20021;-69
2021/09/01 04:51:05;;;;;;;13.98;5.70;;;14.90;99.90;;;;;;6098094;23;20608;-69
2021/09/01 04:53:31;;;;;;;17.08;6.85;;;14.90;99.90;;;;;;6120484;23;20037;-69
2021/09/01 04:55:57;;;;;;;14.95;6.70;;;14.90;99.90;;;;;;6098088;23;20077;-69
2021/09/01 04:58:22;;;;;;;20.98;7.25;;;14.90;99.90;;;;;;6072301;23;20021;-69
2021/09/01 05:00:48;;;;;;;15.70;6.32;;;14.90;99.90;;;;;;6097139;23;20022;-69
2021/09/01 05:03:14;;;;;;;12.20;5.50;;;14.80;99.90;;;;;;6097381;23;20367;-69
2021/09/01 05:05:40;;;;;;;12.30;6.07;;;14.90;99.90;;;;;;6095824;23;20120;-69
2021/09/01 05:08:06;;;;;;;14.07;6.40;;;14.80;99.90;;;;;;6122966;23;20462;-69
2021/09/01 05:10:32;;;;;;;14.85;6.20;;;14.80;99.90;;;;;;6096337;23;20021;-69
2021/09/01 05:12:57;;;;;;;19.63;6.90;;;14.80;99.90;;;;;;6097638;23;20028;-69
2021/09/01 05:15:23;;;;;;;16.58;5.93;;;14.80;99.90;;;;;;6098469;23;20225;-69
2021/09/01 05:17:49;;;;;;;14.73;5.47;;;14.80;99.90;;;;;;6092597;23;20072;-69
2021/09/01 05:20:17;;;;;;;14.98;5.78;;;14.80;99.90;;;;;;6120926;23;20096;-68
2021/09/01 05:22:48;;;;;;;17.13;5.20;;;14.90;99.90;;;;;;6120226;23;20130;-69
2021/09/01 05:25:18;;;;;;;18.30;6.00;;;14.90;99.90;;;;;;6119274;23;20052;-69
2021/09/01 05:27:49;;;;;;;19.65;5.57;;;14.80;99.90;;;;;;6095765;23;20025;-69
2021/09/01 05:30:16;;;;;;;11.10;5.07;;;14.90;99.90;;;;;;6119248;23;20021;-69
2021/09/01 05:32:46;;;;;;;11.20;5.15;;;14.90;99.90;;;;;;6093914;23;20022;-69
2021/09/01 05:35:13;;;;;;;13.18;5.50;;;14.90;99.90;;;;;;6119743;23;20025;-69
2021/09/01 05:37:40;;;;;;;16.23;5.65;;;14.90;99.90;;;;;;6120143;23;20028;-68
2021/09/01 05:40:08;;;;;;;14.57;6.22;;;14.90;99.90;;;;;;6095969;23;20022;-69
2021/09/01 05:42:34;;;;;;;14.48;5.70;;;14.90;99.90;;;;;;6118471;23;20021;-68
2021/09/01 05:45:02;;;;;;;19.13;5.88;;;14.90;99.90;;;;;;6048899;23;20648;-69
2021/09/01 05:47:28;;;;;;;13.40;5.93;;;14.90;99.90;;;;;;6095755;23;20173;-69
2021/09/01 05:49:56;;;;;;;11.07;5.88;;;14.90;99.90;;;;;;6095882;23;20060;-69
2021/09/01 05:52:27;;;;;;;17.63;7.93;;;14.90;99.90;;;;;;6120667;23;20024;-69
2021/09/01 05:54:55;;;;;;;12.43;6.10;;;15.00;99.90;;;;;;6070912;23;20074;-69
2021/09/01 05:57:32;;;;;;;13.38;5.50;;;15.00;99.90;;;;;;6094681;23;20414;-69
2021/09/01 06:00:16;;;;;;;18.75;6.95;;;15.00;99.90;;;;;;6119822;23;20056;-68
2021/09/01 06:03:03;;;;;;;13.10;5.85;;;15.00;99.90;;;;;;6116001;23;20324;-68
2021/09/01 06:05:30;;;;;;;14.38;6.35;;;15.00;99.90;;;;;;6119362;23;20032;-69
2021/09/01 06:07:58;;;;;;;14.55;6.57;;;15.00;99.90;;;;;;6122272;23;20025;-68
2021/09/01 06:10:29;;;;;;;12.63;5.45;;;15.00;99.90;;;;;;6118466;23;20018;-68
2021/09/01 06:13:01;;;;;;;15.02;5.72;;;15.00;99.90;;;;;;6120082;23;20033;-68
2021/09/01 06:15:27;;;;;;;19.65;6.30;;;15.10;99.90;;;;;;6096281;23;20807;-68
2021/09/01 06:17:53;;;;;;;15.05;5.55;;;15.10;99.90;;;;;;6096480;23;20021;-68
2021/09/01 06:20:19;;;;;;;13.63;5.93;;;15.10;99.90;;;;;;6094904;23;20029;-68
2021/09/01 06:22:46;;;;;;;16.20;5.78;;;15.10;99.90;;;;;;6120389;23;20017;-68
2021/09/01 06:25:12;;;;;;;15.73;6.30;;;15.20;99.90;;;;;;6122711;23;20477;-68
2021/09/01 06:27:38;;;;;;;14.63;5.38;;;15.20;99.90;;;;;;6096862;23;20104;-69
2021/09/01 06:30:05;;;;;;;16.80;6.68;;;15.20;99.90;;;;;;6121039;23;20339;-69
2021/09/01 06:32:31;;;;;;;15.02;5.20;;;15.30;99.90;;;;;;6122284;23;20100;-69
2021/09/01 06:34:57;;;;;;;9.68;4.32;;;15.30;99.90;;;;;;6097591;23;20064;-69
2021/09/01 06:37:23;;;;;;;16.30;6.22;;;15.30;99.90;;;;;;6122589;23;20021;-69
2021/09/01 06:39:53;;;;;;;16.30;5.65;;;15.40;99.90;;;;;;6096940;23;20110;-69
2021/09/01 06:42:20;;;;;;;15.50;5.43;;;15.40;99.90;;;;;;6096687;23;20025;-69
2021/09/01 06:44:46;;;;;;;14.55;5.40;;;15.40;99.90;;;;;;6098129;23;20025;-69
2021/09/01 06:47:12;;;;;;;16.10;5.20;;;15.40;99.90;;;;;;6094666;23;20028;-69
2021/09/01 06:49:38;;;;;;;14.57;6.80;;;15.50;99.90;;;;;;6095796;23;20025;-69
2021/09/01 06:52:04;;;;;;;20.38;5.72;;;15.50;99.90;;;;;;6122466;23;20031;-69
2021/09/01 06:54:30;;;;;;;11.75;5.65;;;15.50;99.90;;;;;;6096193;23;20112;-69
2021/09/01 06:56:56;;;;;;;14.15;6.18;;;15.50;99.90;;;;;;6096620;23;20072;-69
2021/09/01 06:59:21;;;;;;;20.95;7.47;;;15.50;99.90;;;;;;6097463;23;20021;-69
2021/09/01 07:01:47;;;;;;;16.35;6.10;;;15.60;99.90;;;;;;6121612;23;20026;-69
2021/09/01 07:04:13;;;;;;;17.48;6.22;;;15.70;99.90;;;;;;6119953;23;20104;-69
2021/09/01 07:06:39;;;;;;;20.48;6.50;;;15.70;99.90;;;;;;6095419;23;20021;-69
2021/09/01 07:09:05;;;;;;;22.00;6.78;;;15.80;99.90;;;;;;6092910;23;20157;-69
2021/09/01 07:11:30;;;;;;;15.23;5.60;;;15.80;99.90;;;;;;6121853;23;20090;-69
2021/09/01 07:13:56;;;;;;;16.73;6.03;;;15.80;99.90;;;;;;6072784;23;20395;-69
2021/09/01 07:16:22;;;;;;;18.70;5.55;;;15.80;99.90;;;;;;6118117;23;20021;-69
2021/09/01 07:18:48;;;;;;;19.17;5.50;;;15.90;99.90;;;;;;6073069;23;20028;-69
2021/09/01 07:21:13;;;;;;;15.27;5.55;;;15.90;99.90;;;;;;6120759;23;20026;-69
2021/09/01 07:23:40;;;;;;;15.75;5.50;;;16.00;99.90;;;;;;6118175;23;20022;-69
2021/09/01 07:26:06;;;;;;;15.75;5.13;;;16.00;99.90;;;;;;6121052;23;20032;-69
2021/09/01 07:28:34;;;;;;;14.98;5.80;;;16.00;99.90;;;;;;6097626;23;20021;-69
2021/09/01 07:31:00;;;;;;;13.68;5.55;;;16.00;99.90;;;;;;6122388;23;20022;-69
2021/09/01 07:33:25;;;;;;;9.85;4.72;;;16.10;99.90;;;;;;6121766;23;20044;-69
2021/09/01 07:35:51;;;;;;;16.13;6.10;;;16.10;99.90;;;;;;6119382;23;20025;-69
2021/09/01 07:38:17;;;;;;;13.57;5.65;;;16.10;99.90;;;;;;6122084;23;20084;-69
2021/09/01 07:40:43;;;;;;;19.20;5.70;;;16.10;99.90;;;;;;6119642;23;20022;-69
2021/09/01 07:43:09;;;;;;;13.88;5.05;;;16.10;99.90;;;;;;6098034;23;20065;-69
2021/09/01 07:45:34;;;;;;;15.77;6.55;;;16.20;99.90;;;;;;6094909;23;20053;-69
2021/09/01 07:48:00;;;;;;;14.68;4.60;;;16.20;99.90;;;;;;6098103;23;20029;-69
2021/09/01 07:50:29;;;;;;;16.20;5.68;;;16.20;99.90;;;;;;6147761;23;20025;-69
2021/09/01 07:52:55;;;;;;;13.13;5.07;;;16.30;99.90;;;;;;6096688;23;20108;-69
2021/09/01 07:55:21;;;;;;;13.23;5.40;;;16.30;99.90;;;;;;6119276;23;20033;-69
2021/09/01 07:57:47;;;;;;;15.88;5.50;;;16.30;99.90;;;;;;6072587;23;20032;-69
2021/09/01 08:00:14;;;;;;;16.30;6.32;;;16.30;99.90;;;;;;6121160;23;20021;-69
2021/09/01 08:02:43;;;;;;;13.25;5.07;;;16.40;99.90;;;;;;6094915;23;20026;-69
2021/09/01 08:05:09;;;;;;;14.63;5.57;;;16.40;99.90;;;;;;6116616;23;20018;-69
2021/09/01 08:07:38;;;;;;;14.55;5.63;;;16.40;99.90;;;;;;6114439;23;20495;-69
2021/09/01 08:10:05;;;;;;;13.15;5.10;;;16.40;99.90;;;;;;6067522;23;20105;-69
2021/09/01 08:12:31;;;;;;;14.98;5.25;;;16.50;99.90;;;;;;6114792;23;20033;-69
2021/09/01 08:14:56;;;;;;;14.48;5.47;;;16.50;99.90;;;;;;6090516;23;20018;-69
2021/09/01 08:17:22;;;;;;;14.05;5.50;;;16.50;99.90;;;;;;6115799;23;20028;-69
2021/09/01 08:19:48;;;;;;;13.88;6.28;;;16.60;99.90;;;;;;6089179;23;20571;-69
2021/09/01 08:22:14;;;;;;;14.85;5.55;;;16.60;99.90;;;;;;6090448;23;20033;-69
2021/09/01 08:24:40;;;;;;;14.95;4.70;;;16.60;99.90;;;;;;6066388;23;20028;-69
2021/09/01 08:27:07;;;;;;;13.15;5.63;;;16.70;99.90;;;;;;6066772;23;20018;-69
2021/09/01 08:29:36;;;;;;;16.13;5.65;;;16.80;99.90;;;;;;6116927;23;20022;-69
2021/09/01 08:32:06;;;;;;;13.93;5.15;;;16.90;99.90;;;;;;6116045;23;20057;-69
2021/09/01 08:34:36;;;;;;;12.45;4.90;;;16.90;99.90;;;;;;6091335;23;20022;-69
2021/09/01 08:37:03;;;;;;;13.60;5.65;;;17.00;99.90;;;;;;6090482;23;20028;-69
2021/09/01 08:39:30;;;;;;;14.60;6.10;;;17.10;99.90;;;;;;6114310;23;20275;-69
2021/09/01 08:41:56;;;;;;;16.05;5.90;;;17.10;99.90;;;;;;6091684;23;20022;-69
2021/09/01 08:44:22;;;;;;;17.63;5.95;;;17.20;99.90;;;;;;6114845;23;20092;-69
2021/09/01 08:46:50;;;;;;;14.27;5.57;;;17.30;99.90;;;;;;6112132;23;20022;-69
2021/09/01 08:49:18;;;;;;;13.50;5.22;;;17.30;99.90;;;;;;6069311;23;20054;-69
2021/09/01 08:51:48;;;;;;;16.60;5.70;;;17.30;99.90;;;;;;6114879;23;20026;-69
2021/09/01 08:54:15;;;;;;;13.05;5.35;;;17.30;99.90;;;;;;6114523;23;20156;-69
2021/09/01 08:56:45;;;;;;;17.75;5.45;;;17.40;99.90;;;;;;6089292;23;20026;-70
2021/09/01 08:59:11;;;;;;;15.82;5.22;;;17.40;99.90;;;;;;6114006;23;20025;-69
2021/09/01 09:01:50;;;;;;;14.02;5.30;;;17.40;99.90;;;;;;6111609;23;20022;-69
2021/09/01 09:04:19;;;;;;;13.85;5.63;;;17.40;99.90;;;;;;6091900;23;20022;-70
2021/09/01 09:06:54;;;;;;;15.90;5.15;;;17.40;99.90;;;;;;6114521;23;20041;-70
2021/09/01 09:09:22;;;;;;;16.90;5.10;;;17.50;99.90;;;;;;6116344;23;20017;-70
2021/09/01 09:11:49;;;;;;;13.35;5.22;;;17.50;99.90;;;;;;6116992;23;20037;-70
2021/09/01 09:14:18;;;;;;;15.60;4.88;;;17.50;99.90;;;;;;6116261;23;20026;-70
2021/09/01 09:17:08;;;;;;;11.60;4.40;;;17.50;99.90;;;;;;6116458;23;20399;-69
2021/09/01 09:20:02;;;;;;;15.43;4.40;;;17.60;99.90;;;;;;6081260;23;20057;-70
2021/09/01 09:22:37;;;;;;;16.23;4.55;;;17.70;99.90;;;;;;6116657;23;20030;-70
2021/09/01 09:25:31;;;;;;;12.15;4.45;;;17.70;99.90;;;;;;6116547;23;20028;-70
2021/09/01 09:28:05;;;;;;;12.85;4.53;;;17.70;99.90;;;;;;6091300;23;20076;-70
2021/09/01 09:30:42;;;;;;;13.38;4.63;;;17.70;99.90;;;;;;6116462;23;20526;-70
2021/09/01 09:33:18;;;;;;;12.88;3.85;;;17.80;99.90;;;;;;6115205;23;20065;-69
2021/09/01 09:35:58;;;;;;;13.73;4.35;;;17.80;99.40;;;;;;6117113;23;20033;-69
2021/09/01 09:38:39;;;;;;;13.82;4.40;;;17.80;99.90;;;;;;6115862;23;20025;-69
2021/09/01 09:41:08;;;;;;;15.43;5.07;;;17.80;99.90;;;;;;6115242;23;20611;-69
2021/09/01 09:43:37;;;;;;;15.18;5.20;;;17.90;99.90;;;;;;6114648;23;20032;-69
2021/09/01 09:46:10;;;;;;;14.13;5.05;;;17.90;99.30;;;;;;6090914;23;20073;-69
2021/09/01 09:48:41;;;;;;;11.73;4.20;;;17.90;99.00;;;;;;6091490;23;20030;-69
2021/09/01 09:51:13;;;;;;;10.23;4.32;;;17.90;99.10;;;;;;6139602;23;20460;-69
2021/09/01 09:53:48;;;;;;;12.48;5.03;;;17.90;99.10;;;;;;6116301;23;20033;-69
2021/09/01 09:56:29;;;;;;;11.15;4.32;;;17.90;98.90;;;;;;6092963;23;20022;-69
2021/09/01 09:58:57;;;;;;;15.07;4.93;;;18.00;99.10;;;;;;6115402;23;20068;-69
2021/09/01 10:01:26;;;;;;;13.35;4.45;;;18.00;98.70;;;;;;6068320;23;20563;-69
2021/09/01 10:03:53;;;;;;;14.53;4.87;;;18.00;98.10;;;;;;6066342;23;20024;-69
2021/09/01 10:06:20;;;;;;;13.02;4.18;;;18.00;96.50;;;;;;6091683;23;20711;-69
2021/09/01 10:08:52;;;;;;;12.10;4.35;;;18.00;96.50;;;;;;6068776;23;20528;-69
2021/09/01 10:11:20;;;;;;;12.40;4.32;;;18.10;97.60;;;;;;6115054;23;20101;-69
2021/09/01 10:13:48;;;;;;;16.30;4.50;;;18.10;98.10;;;;;;6117996;23;20515;-69
2021/09/01 10:16:20;;;;;;;15.65;4.10;;;18.20;98.20;;;;;;6115671;23;20044;-70
2021/09/01 10:19:01;;;;;;;14.18;4.72;;;18.20;97.80;;;;;;6094247;23;20023;-69
2021/09/01 10:21:32;;;;;;;11.63;4.60;;;18.20;98.40;;;;;;6117593;23;20026;-71
2021/09/01 10:24:14;;;;;;;14.02;4.28;;;18.30;98.10;;;;;;6115953;23;20034;-70
2021/09/01 10:26:40;;;;;;;12.50;4.43;;;18.30;97.70;;;;;;6093297;23;20057;-71
2021/09/01 10:29:44;;;;;;;15.32;4.07;;;18.40;97.10;;;;;;6093337;23;20525;-68
2021/09/01 10:32:28;;;;;;;10.80;4.13;;;18.30;97.10;;;;;;6091009;23;20029;-68
2021/09/01 10:35:17;;;;;;;12.60;5.03;;;18.30;97.70;;;;;;6118001;23;20162;-70
2021/09/01 10:37:44;;;;;;;14.88;4.32;;;18.40;97.40;;;;;;6087834;23;20080;-70
2021/09/01 10:40:12;;;;;;;16.10;4.45;;;18.40;97.40;;;;;;6117190;23;20043;-71
2021/09/01 10:42:42;;;;;;;11.43;4.40;;;18.40;97.30;;;;;;6114957;23;20025;-71
2021/09/01 10:45:12;;;;;;;;;;;18.40;97.00;;;;;;6094317;23;20086;-71
2021/09/01 10:47:50;;;;;;;12.23;4.18;;;18.40;97.30;;;;;;6114212;23;19980;-70
2021/09/01 10:50:33;;;;;;;14.65;4.53;;;18.40;97.10;;;;;;6117891;23;20351;-70
2021/09/01 10:53:04;;;;;;;13.05;4.03;;;18.40;96.70;;;;;;6116533;23;20410;-71
2021/09/01 10:55:32;;;;;;;21.30;6.82;;;18.40;95.90;;;;;;6093792;23;20030;-71
2021/09/01 10:58:20;;;;;;;19.27;4.05;;;18.40;96.30;;;;;;6089677;23;20044;-70
2021/09/01 11:01:01;;;;;;;67.22;17.17;;;18.40;96.30;;;;;;6115298;23;20459;-71
2021/09/01 11:03:30;;;;;;;12.57;4.07;;;18.40;96.60;;;;;;6097534;23;20025;-71
2021/09/01 11:06:08;;;;;;;117.53;34.72;;;18.40;96.20;;;;;;6121625;23;20533;-71
2021/09/01 11:08:34;;;;;;;42.88;13.10;;;18.30;97.30;;;;;;6097676;23;20093;-71
2021/09/01 11:11:02;;;;;;;15.35;5.22;;;18.30;97.40;;;;;;6073649;23;20405;-71
2021/09/01 11:13:44;;;;;;;14.95;4.53;;;18.20;97.40;;;;;;6099515;23;20032;-71
2021/09/01 11:16:20;;;;;;;11.02;4.25;;;18.20;98.10;;;;;;6097882;23;20022;-71
2021/09/01 11:19:08;;;;;;;13.55;5.00;;;18.20;97.60;;;;;;6120125;23;20455;-71
2021/09/01 11:21:42;;;;;;;13.18;4.78;;;18.20;97.40;;;;;;6118786;23;20387;-70
2021/09/01 11:24:10;;;;;;;10.63;4.63;;;18.10;97.30;;;;;;6096839;23;20336;-71
2021/09/01 11:26:36;;;;;;;14.50;4.55;;;18.20;96.30;;;;;;6096913;23;20088;-71
2021/09/01 11:29:07;;;;;;;14.98;4.80;;;18.00;97.10;;;;;;6074340;23;20064;-70
2021/09/01 11:31:44;;;;;;;13.43;4.32;;;18.00;97.00;;;;;;6122821;23;20017;-71
2021/09/01 11:34:14;;;;;;;15.20;4.88;;;18.00;97.50;;;;;;6121348;23;20466;-70
2021/09/01 11:36:44;;;;;;;11.13;4.28;;;17.90;97.70;;;;;;6096839;23;20018;-70
2021/09/01 11:39:11;;;;;;;13.10;5.50;;;17.90;98.00;;;;;;6122122;23;20148;-71
2021/09/01 11:41:37;;;;;;;13.05;3.85;;;18.00;97.30;;;;;;6098116;23;20032;-71
2021/09/01 11:44:05;;;;;;;12.25;4.43;;;17.90;97.60;;;;;;6122816;23;20032;-70
2021/09/01 11:46:36;;;;;;;10.35;4.60;;;17.90;97.20;;;;;;6096158;23;20144;-70
2021/09/01 11:49:10;;;;;;;9.73;3.83;;;17.90;97.50;;;;;;6097499;23;20124;-68
2021/09/01 11:51:39;;;;;;;10.98;3.97;;;17.90;97.90;;;;;;6097400;23;20021;-71
2021/09/01 11:54:07;;;;;;;11.20;3.90;;;17.90;98.10;;;;;;6121417;23;20502;-71
2021/09/01 11:56:36;;;;;;;15.23;5.60;;;17.90;98.40;;;;;;6097361;23;20017;-71
2021/09/01 11:59:13;;;;;;;15.15;4.65;;;18.00;98.10;;;;;;6120131;23;20088;-70
2021/09/01 12:01:50;;;;;;;13.15;4.47;;;18.00;98.30;;;;;;6094871;23;20057;-71
2021/09/01 12:04:20;;;;;;;15.48;4.93;;;18.00;98.00;;;;;;6112345;23;20455;-71
2021/09/01 12:06:52;;;;;;;15.15;4.03;;;18.10;98.30;;;;;;6114153;23;20025;-70
2021/09/01 12:09:19;;;;;;;12.07;4.32;;;18.10;97.60;;;;;;6117187;23;20040;-70
2021/09/01 12:11:59;;;;;;;9.20;4.07;;;18.10;97.40;;;;;;6116623;23;20049;-70
2021/09/01 12:14:27;;;;;;;13.23;4.05;;;18.20;97.30;;;;;;6117987;23;20462;-70
2021/09/01 12:17:13;;;;;;;12.57;4.35;;;18.30;97.40;;;;;;6115481;23;20116;-70
2021/09/01 12:20:05;;;;;;;13.73;4.15;;;18.30;97.60;;;;;;6118434;23;20128;-70
2021/09/01 12:22:41;;;;;;;8.88;3.50;;;18.40;97.60;;;;;;6113652;23;20073;-70
2021/09/01 12:25:13;;;;;;;9.52;3.95;;;18.40;95.60;;;;;;6118772;23;20029;-70
2021/09/01 12:27:41;;;;;;;7.25;3.72;;;18.40;96.40;;;;;;6088352;23;20300;-71
2021/09/01 12:30:11;;;;;;;8.52;3.22;;;18.40;96.40;;;;;;6117095;23;20081;-70
2021/09/01 12:32:40;;;;;;;8.13;3.28;;;18.40;96.30;;;;;;6067975;23;20044;-71
2021/09/01 12:35:06;;;;;;;7.50;3.28;;;18.40;96.50;;;;;;6089989;23;20491;-71
2021/09/01 12:37:37;;;;;;;8.93;3.65;;;18.50;96.80;;;;;;6115698;23;20773;-71
2021/09/01 12:40:09;;;;;;;7.75;3.42;;;18.50;96.40;;;;;;6116233;23;20054;-70
2021/09/01 12:42:40;;;;;;;7.20;2.90;;;18.50;96.60;;;;;;6114941;23;20033;-71
2021/09/01 12:45:08;;;;;;;9.55;3.63;;;18.50;96.20;;;;;;6117299;23;20034;-71
2021/09/01 12:47:35;;;;;;;9.32;3.17;;;18.50;96.30;;;;;;6115065;23;20022;-70